Aviation Digital Data Service (ADDS)

Output produced by METARs form (1917 UTC 18 June 2019)
found at http://www.aviationweather.gov/metar/data/
 
KBKW 181851Z AUTO 17005KT 10SM -RA FEW011 FEW080 OVC100 21/18 A3005 RMK AO2 SLP146 P0001 T02110183
KBKW 181739Z 1818/1918 26005KT P6SM -SHRA VCTS BKN050CB 
     FM190000 17006KT P6SM BKN080 
     FM190800 20004KT 4SM BR BKN025 
     FM191400 23005KT P6SM -SHRA BKN025 
     FM191600 24005KT P6SM -SHRA VCTS BKN040CB
       
KBLF 181852Z AUTO 00000KT 5SM -RA BR SCT055 BKN070 OVC090 19/18 A3009 RMK AO2 TSB04E19 SLP160 P0012 T01890178
KBLF 181747Z 1818/1918 25007KT 5SM TSRA OVC040CB 
     TEMPO 1818/1821 2SM +TSRA OVC030CB 
     FM182100 VRB04KT P6SM VCSH OVC030 
     FM190800 00000KT P6SM OVC007 
     FM191400 26006KT P6SM BKN040
       
KW22 181855Z AUTO 21006KT 10SM FEW033 24/20 A2998 RMK AO2
KCRW 181906Z 18008KT 10SM BKN024 BKN120 25/19 A2996 RMK AO2 T02500194
KCRW 181739Z 1818/1918 22006KT P6SM -SHRA BKN025 OVC100 
     FM190000 VRB03KT P6SM BKN070 
     FM191100 VRB03KT P6SM -SHRA BKN025 
     FM191600 24005KT P6SM -SHRA VCTS BKN040CB
       
KCKB 181853Z 21007KT 10SM -RA FEW020 BKN065 OVC080 24/19 A2996 RMK AO2 RAB39 SLP129 P0000 T02440189
KCKB 181739Z 1818/1918 23006KT P6SM -SHRA OVC025 
     FM182300 23004KT P6SM BKN050 
     FM190900 VRB03KT P6SM BKN015 
     FM191500 22004KT P6SM -SHRA VCTS BKN015CB
       
KEKN 181851Z AUTO 19007KT 10SM SCT032 24/17 A3000 RMK AO2 RAB1754E32 SLP148 P0000 T02440172 TSNO
KEKN 181739Z 1818/1918 25006KT P6SM -SHRA BKN040 
     FM190000 22004KT P6SM BKN040 
     FM190700 VRB03KT 1SM BR BKN001 
     FM191300 VRB03KT 4SM BR BKN003 
     FM191400 VRB03KT P6SM -SHRA VCTS BKN025CB
       
KHTS 181908Z 19006KT 10SM -RA FEW020 SCT028 OVC110 23/21 A2994 RMK AO2 RAB1856 P0000 T02330206
KHTS 181739Z 1818/1918 20006KT P6SM -SHRA VCTS BKN025CB 
     FM182000 21006KT P6SM OVC040 
     FM182300 19005KT P6SM BKN070 
     FM190600 VRB03KT 5SM BR BKN025 
     FM191200 21004KT P6SM -SHRA BKN007 
     FM191600 23005KT P6SM -SHRA VCTS BKN025CB
       
KLWB 181855Z AUTO 20003KT 10SM BKN011 BKN018 OVC090 21/19 A3005 RMK AO2 T02140194
KLWB 181747Z 1818/1918 23008KT 5SM RA OVC050 
     TEMPO 1819/1822 2SM +TSRA OVC040CB 
     FM182200 VRB03KT P6SM OVC030 
     FM190800 00000KT P6SM OVC004 
     FM191400 23005KT P6SM BKN040
       
K6L4 181915Z AUTO 00000KT 6SM BR FEW009 21/21 A3000 RMK AO2
KMRB 181853Z 25010KT 10SM FEW040 27/19 A2991 RMK AO2 RAE1756B13E33 SLP124 P0000 T02670194
KMRB 181743Z 1818/1918 24005KT 5SM -SHRA VCTS SCT025CB OVC040 
     FM190300 VRB03KT 5SM BR SCT020 OVC030 
     FM190800 00000KT P6SM OVC020 
     FM191200 00000KT 3SM BR SCT020 OVC025 
     FM191500 VRB03KT P6SM SCT020 BKN025
       
KMGW 181853Z 00000KT 10SM SCT007 BKN014 BKN026 22/20 A2997 RMK AO2 RAE17 SLP141 P0004 T02220200
KMGW 181842Z 1819/1918 19005KT 4SM BR BKN006 
     TEMPO 1819/1822 2SM -SHRA BKN025 
     FM182200 VRB04KT P6SM VCSH BKN025 
     FM190200 20003KT P6SM VCSH OVC040 
     FM190600 19003KT P6SM VCSH BKN025 
     FM191500 00000KT P6SM -SHRA BKN015
       
KPKB 181912Z 22004KT 10SM SCT021 BKN032 OVC100 24/19 A2996 RMK AO2 T02390194
KPKB 181739Z 1818/1918 22006KT P6SM -SHRA VCTS BKN015CB OVC100 
     FM182200 20005KT P6SM -SHRA VCTS BKN045CB 
     FM190000 19004KT P6SM BKN050 
     FM190600 VRB03KT 4SM BR BKN015 
     FM191000 VRB03KT 4SM BR BKN007 
     FM191400 21004KT P6SM -SHRA OVC015 
     FM191600 VRB03KT P6SM -SHRA VCTS BKN025CB
       
KW99 181855Z AUTO 15006KT 10SM -RA SCT038 25/19 A2994 RMK AO2 T02500189
KI16 181855Z AUTO 7SM -RA SCT008 BKN022 OVC040 21/20 A3008 RMK AO2 T02130200
KHLG 181853Z 19008KT 10SM -RA BKN015 BKN028 OVC065 21/19 A2995 RMK AO2 RAB48 SLP136 P0000 T02110189
KHLG 181735Z 1818/1918 21005KT P6SM -SHRA OVC025 
     FM182200 22003KT P6SM VCSH BKN025 
     FM190300 00000KT P6SM VCSH BKN015 
     FM190600 00000KT P6SM BKN007 
     FM190900 00000KT 5SM BR VCSH BKN004